sensor_id;sensor_type;location;lat;lon;timestamp;P1;durP1;ratioP1;P2;durP2;ratioP2
49450;SDS011;35336;48.400;10.886;2022-11-04T00:00:00;12.33;;;6.90;;
49450;SDS011;35336;48.400;10.886;2022-11-04T00:00:15;9.77;;;6.67;;
49450;SDS011;35336;48.400;10.886;2022-11-04T00:00:30;6.90;;;6.07;;
49450;SDS011;35336;48.400;10.886;2022-11-04T00:00:46;7.93;;;6.50;;
49450;SDS011;35336;48.400;10.886;2022-11-04T00:01:01;9.10;;;7.07;;
49450;SDS011;35336;48.400;10.886;2022-11-04T00:01:18;9.57;;;6.90;;
49450;SDS011;35336;48.400;10.886;2022-11-04T00:01:37;9.00;;;6.80;;
49450;SDS011;35336;48.400;10.886;2022-11-04T00:01:54;8.15;;;6.70;;
49450;SDS011;35336;48.400;10.886;2022-11-04T00:02:10;9.20;;;7.00;;
49450;SDS011;35336;48.400;10.886;2022-11-04T00:02:25;8.67;;;6.83;;
49450;SDS011;35336;48.400;10.886;2022-11-04T00:02:41;7.40;;;6.30;;
49450;SDS011;35336;48.400;10.886;2022-11-04T00:02:56;7.70;;;6.30;;
49450;SDS011;35336;48.400;10.886;2022-11-04T00:03:11;7.33;;;6.37;;
49450;SDS011;35336;48.400;10.886;2022-11-04T00:03:26;7.43;;;6.67;;
49450;SDS011;35336;48.400;10.886;2022-11-04T00:03:42;8.23;;;6.83;;
49450;SDS011;35336;48.400;10.886;2022-11-04T00:03:57;8.57;;;6.50;;
49450;SDS011;35336;48.400;10.886;2022-11-04T00:04:13;9.23;;;6.13;;
49450;SDS011;35336;48.400;10.886;2022-11-04T00:04:31;9.40;;;6.20;;
49450;SDS011;35336;48.400;10.886;2022-11-04T00:04:46;9.00;;;6.60;;
49450;SDS011;35336;48.400;10.886;2022-11-04T00:05:01;8.67;;;6.93;;
49450;SDS011;35336;48.400;10.886;2022-11-04T00:05:17;8.40;;;6.80;;
49450;SDS011;35336;48.400;10.886;2022-11-04T00:05:32;7.90;;;6.32;;
49450;SDS011;35336;48.400;10.886;2022-11-04T00:05:47;7.40;;;6.30;;
49450;SDS011;35336;48.400;10.886;2022-11-04T00:06:03;7.50;;;6.57;;
49450;SDS011;35336;48.400;10.886;2022-11-04T00:06:18;7.63;;;6.80;;
49450;SDS011;35336;48.400;10.886;2022-11-04T00:06:34;10.30;;;6.80;;
49450;SDS011;35336;48.400;10.886;2022-11-04T00:06:51;9.52;;;6.40;;
49450;SDS011;35336;48.400;10.886;2022-11-04T00:07:06;6.65;;;5.93;;
49450;SDS011;35336;48.400;10.886;2022-11-04T00:07:22;7.17;;;5.90;;
49450;SDS011;35336;48.400;10.886;2022-11-04T00:07:37;8.43;;;6.32;;
49450;SDS011;35336;48.400;10.886;2022-11-04T00:07:52;10.67;;;6.50;;
49450;SDS011;35336;48.400;10.886;2022-11-04T00:08:07;10.53;;;6.30;;
49450;SDS011;35336;48.400;10.886;2022-11-04T00:08:23;8.03;;;6.00;;
49450;SDS011;35336;48.400;10.886;2022-11-04T00:08:38;7.85;;;6.05;;
49450;SDS011;35336;48.400;10.886;2022-11-04T00:08:54;7.80;;;6.17;;
49450;SDS011;35336;48.400;10.886;2022-11-04T00:09:16;6.95;;;5.85;;
49450;SDS011;35336;48.400;10.886;2022-11-04T00:09:41;8.55;;;6.45;;
49450;SDS011;35336;48.400;10.886;2022-11-04T00:09:57;8.17;;;6.30;;
49450;SDS011;35336;48.400;10.886;2022-11-04T00:10:12;10.05;;;6.28;;
49450;SDS011;35336;48.400;10.886;2022-11-04T00:10:27;10.70;;;6.37;;
49450;SDS011;35336;48.400;10.886;2022-11-04T00:10:42;8.17;;;6.40;;
49450;SDS011;35336;48.400;10.886;2022-11-04T00:10:58;9.50;;;6.10;;
49450;SDS011;35336;48.400;10.886;2022-11-04T00:11:14;9.15;;;6.05;;
49450;SDS011;35336;48.400;10.886;2022-11-04T00:11:29;7.00;;;5.80;;
49450;SDS011;35336;48.400;10.886;2022-11-04T00:11:45;7.70;;;5.90;;
49450;SDS011;35336;48.400;10.886;2022-11-04T00:12:00;8.38;;;6.25;;
49450;SDS011;35336;48.400;10.886;2022-11-04T00:12:16;6.90;;;6.20;;
49450;SDS011;35336;48.400;10.886;2022-11-04T00:12:31;6.80;;;6.00;;
49450;SDS011;35336;48.400;10.886;2022-11-04T00:12:46;7.93;;;6.30;;
49450;SDS011;35336;48.400;10.886;2022-11-04T00:13:02;7.30;;;6.07;;
49450;SDS011;35336;48.400;10.886;2022-11-04T00:13:17;6.90;;;5.78;;
49450;SDS011;35336;48.400;10.886;2022-11-04T00:13:32;7.73;;;5.87;;
49450;SDS011;35336;48.400;10.886;2022-11-04T00:13:47;6.73;;;5.90;;
49450;SDS011;35336;48.400;10.886;2022-11-04T00:14:03;6.63;;;5.80;;
49450;SDS011;35336;48.400;10.886;2022-11-04T00:14:20;6.68;;;5.40;;
49450;SDS011;35336;48.400;10.886;2022-11-04T00:14:35;6.00;;;5.40;;
49450;SDS011;35336;48.400;10.886;2022-11-04T00:14:51;6.05;;;5.50;;
49450;SDS011;35336;48.400;10.886;2022-11-04T00:15:07;6.25;;;5.65;;
49450;SDS011;35336;48.400;10.886;2022-11-04T00:15:22;7.07;;;5.83;;
49450;SDS011;35336;48.400;10.886;2022-11-04T00:15:37;6.63;;;5.60;;
49450;SDS011;35336;48.400;10.886;2022-11-04T00:15:53;7.38;;;5.28;;
49450;SDS011;35336;48.400;10.886;2022-11-04T00:16:08;7.67;;;5.40;;
49450;SDS011;35336;48.400;10.886;2022-11-04T00:16:24;6.72;;;5.50;;
49450;SDS011;35336;48.400;10.886;2022-11-04T00:16:39;8.80;;;5.43;;
49450;SDS011;35336;48.400;10.886;2022-11-04T00:16:56;8.30;;;5.60;;
49450;SDS011;35336;48.400;10.886;2022-11-04T00:17:12;6.75;;;5.68;;
49450;SDS011;35336;48.400;10.886;2022-11-04T00:17:27;7.47;;;5.70;;
49450;SDS011;35336;48.400;10.886;2022-11-04T00:17:42;7.67;;;5.60;;
49450;SDS011;35336;48.400;10.886;2022-11-04T00:17:58;6.68;;;5.38;;
49450;SDS011;35336;48.400;10.886;2022-11-04T00:18:13;8.43;;;5.53;;
49450;SDS011;35336;48.400;10.886;2022-11-04T00:18:28;8.97;;;5.77;;
49450;SDS011;35336;48.400;10.886;2022-11-04T00:18:43;9.17;;;5.87;;
49450;SDS011;35336;48.400;10.886;2022-11-04T00:18:59;8.75;;;5.60;;
49450;SDS011;35336;48.400;10.886;2022-11-04T00:19:15;6.60;;;5.60;;
49450;SDS011;35336;48.400;10.886;2022-11-04T00:19:30;6.30;;;5.57;;
49450;SDS011;35336;48.400;10.886;2022-11-04T00:19:52;6.43;;;5.43;;
49450;SDS011;35336;48.400;10.886;2022-11-04T00:20:08;5.75;;;5.03;;
49450;SDS011;35336;48.400;10.886;2022-11-04T00:20:24;5.97;;;5.03;;
49450;SDS011;35336;48.400;10.886;2022-11-04T00:20:39;6.10;;;5.10;;
49450;SDS011;35336;48.400;10.886;2022-11-04T00:20:55;6.50;;;5.47;;
49450;SDS011;35336;48.400;10.886;2022-11-04T00:21:10;6.40;;;5.33;;
49450;SDS011;35336;48.400;10.886;2022-11-04T00:21:26;5.25;;;4.75;;
49450;SDS011;35336;48.400;10.886;2022-11-04T00:21:41;5.83;;;4.77;;
49450;SDS011;35336;48.400;10.886;2022-11-04T00:21:57;5.93;;;4.85;;
49450;SDS011;35336;48.400;10.886;2022-11-04T00:22:12;5.47;;;4.93;;
49450;SDS011;35336;48.400;10.886;2022-11-04T00:22:27;6.40;;;5.00;;
49450;SDS011;35336;48.400;10.886;2022-11-04T00:22:46;7.27;;;5.10;;
49450;SDS011;35336;48.400;10.886;2022-11-04T00:23:02;6.20;;;5.55;;
49450;SDS011;35336;48.400;10.886;2022-11-04T00:23:17;6.33;;;5.50;;
49450;SDS011;35336;48.400;10.886;2022-11-04T00:23:32;5.97;;;5.13;;
49450;SDS011;35336;48.400;10.886;2022-11-04T00:23:47;5.18;;;4.68;;
49450;SDS011;35336;48.400;10.886;2022-11-04T00:24:03;6.00;;;4.80;;
49450;SDS011;35336;48.400;10.886;2022-11-04T00:24:19;6.47;;;5.15;;
49450;SDS011;35336;48.400;10.886;2022-11-04T00:24:35;5.78;;;5.10;;
49450;SDS011;35336;48.400;10.886;2022-11-04T00:24:50;6.67;;;4.87;;
49450;SDS011;35336;48.400;10.886;2022-11-04T00:25:05;6.67;;;4.63;;
49450;SDS011;35336;48.400;10.886;2022-11-04T00:25:22;5.13;;;4.60;;
49450;SDS011;35336;48.400;10.886;2022-11-04T00:25:37;5.40;;;4.88;;
49450;SDS011;35336;48.400;10.886;2022-11-04T00:25:53;5.23;;;4.73;;
49450;SDS011;35336;48.400;10.886;2022-11-04T00:26:09;5.13;;;4.32;;
49450;SDS011;35336;48.400;10.886;2022-11-04T00:26:24;6.10;;;4.47;;
49450;SDS011;35336;48.400;10.886;2022-11-04T00:26:39;5.97;;;4.63;;
49450;SDS011;35336;48.400;10.886;2022-11-04T00:26:55;5.03;;;4.57;;
49450;SDS011;35336;48.400;10.886;2022-11-04T00:27:12;5.40;;;4.30;;
49450;SDS011;35336;48.400;10.886;2022-11-04T00:27:28;5.18;;;4.03;;
49450;SDS011;35336;48.400;10.886;2022-11-04T00:27:43;4.75;;;4.22;;
49450;SDS011;35336;48.400;10.886;2022-11-04T00:28:09;5.47;;;4.47;;
49450;SDS011;35336;48.400;10.886;2022-11-04T00:28:32;6.22;;;4.40;;
49450;SDS011;35336;48.400;10.886;2022-11-04T00:28:47;6.03;;;4.20;;
49450;SDS011;35336;48.400;10.886;2022-11-04T00:29:03;4.77;;;4.17;;
49450;SDS011;35336;48.400;10.886;2022-11-04T00:29:18;5.27;;;4.40;;
49450;SDS011;35336;48.400;10.886;2022-11-04T00:29:33;4.97;;;4.23;;
49450;SDS011;35336;48.400;10.886;2022-11-04T00:29:49;4.57;;;4.13;;
49450;SDS011;35336;48.400;10.886;2022-11-04T00:30:05;5.17;;;4.40;;
49450;SDS011;35336;48.400;10.886;2022-11-04T00:30:23;5.85;;;4.35;;
49450;SDS011;35336;48.400;10.886;2022-11-04T00:30:38;6.60;;;4.23;;
49450;SDS011;35336;48.400;10.886;2022-11-04T00:30:54;6.93;;;4.18;;
49450;SDS011;35336;48.400;10.886;2022-11-04T00:31:11;6.13;;;4.13;;
49450;SDS011;35336;48.400;10.886;2022-11-04T00:31:26;4.37;;;3.90;;
49450;SDS011;35336;48.400;10.886;2022-11-04T00:31:41;4.35;;;3.75;;
49450;SDS011;35336;48.400;10.886;2022-11-04T00:31:56;4.00;;;3.60;;
49450;SDS011;35336;48.400;10.886;2022-11-04T00:32:12;4.30;;;3.70;;
49450;SDS011;35336;48.400;10.886;2022-11-04T00:32:27;5.63;;;4.00;;
49450;SDS011;35336;48.400;10.886;2022-11-04T00:32:42;5.45;;;4.03;;
49450;SDS011;35336;48.400;10.886;2022-11-04T00:32:57;6.10;;;4.07;;
49450;SDS011;35336;48.400;10.886;2022-11-04T00:33:13;6.13;;;3.97;;
49450;SDS011;35336;48.400;10.886;2022-11-04T00:33:28;4.80;;;3.53;;
49450;SDS011;35336;48.400;10.886;2022-11-04T00:33:44;8.32;;;3.45;;
49450;SDS011;35336;48.400;10.886;2022-11-04T00:33:59;8.82;;;3.70;;
49450;SDS011;35336;48.400;10.886;2022-11-04T00:34:15;4.47;;;3.80;;
49450;SDS011;35336;48.400;10.886;2022-11-04T00:34:30;4.20;;;3.73;;
49450;SDS011;35336;48.400;10.886;2022-11-04T00:34:45;5.82;;;3.47;;
49450;SDS011;35336;48.400;10.886;2022-11-04T00:35:01;5.80;;;3.50;;
49450;SDS011;35336;48.400;10.886;2022-11-04T00:35:16;6.33;;;3.43;;
49450;SDS011;35336;48.400;10.886;2022-11-04T00:35:31;5.97;;;3.22;;
49450;SDS011;35336;48.400;10.886;2022-11-04T00:35:47;4.63;;;3.53;;
49450;SDS011;35336;48.400;10.886;2022-11-04T00:36:03;7.28;;;3.50;;
49450;SDS011;35336;48.400;10.886;2022-11-04T00:36:18;7.23;;;3.20;;
49450;SDS011;35336;48.400;10.886;2022-11-04T00:36:34;5.40;;;3.35;;
49450;SDS011;35336;48.400;10.886;2022-11-04T00:36:50;4.87;;;3.27;;
49450;SDS011;35336;48.400;10.886;2022-11-04T00:37:05;4.67;;;3.17;;
49450;SDS011;35336;48.400;10.886;2022-11-04T00:37:20;3.92;;;3.30;;
49450;SDS011;35336;48.400;10.886;2022-11-04T00:37:36;4.43;;;3.67;;
49450;SDS011;35336;48.400;10.886;2022-11-04T00:37:52;5.28;;;3.72;;
49450;SDS011;35336;48.400;10.886;2022-11-04T00:38:08;3.90;;;3.13;;
49450;SDS011;35336;48.400;10.886;2022-11-04T00:38:23;3.63;;;2.90;;
49450;SDS011;35336;48.400;10.886;2022-11-04T00:38:39;3.25;;;2.83;;
49450;SDS011;35336;48.400;10.886;2022-11-04T00:38:54;3.17;;;2.77;;
49450;SDS011;35336;48.400;10.886;2022-11-04T00:39:10;4.00;;;3.00;;
49450;SDS011;35336;48.400;10.886;2022-11-04T00:39:25;4.47;;;3.20;;
49450;SDS011;35336;48.400;10.886;2022-11-04T00:39:40;6.32;;;3.03;;
49450;SDS011;35336;48.400;10.886;2022-11-04T00:39:55;6.50;;;3.13;;
49450;SDS011;35336;48.400;10.886;2022-11-04T00:40:12;4.23;;;3.10;;
49450;SDS011;35336;48.400;10.886;2022-11-04T00:40:29;3.60;;;2.88;;
49450;SDS011;35336;48.400;10.886;2022-11-04T00:40:44;4.10;;;3.03;;
49450;SDS011;35336;48.400;10.886;2022-11-04T00:40:59;3.47;;;3.03;;
49450;SDS011;35336;48.400;10.886;2022-11-04T00:41:14;3.37;;;3.07;;
49450;SDS011;35336;48.400;10.886;2022-11-04T00:41:30;3.87;;;3.03;;
49450;SDS011;35336;48.400;10.886;2022-11-04T00:41:45;3.60;;;2.83;;
49450;SDS011;35336;48.400;10.886;2022-11-04T00:42:00;3.08;;;2.72;;
49450;SDS011;35336;48.400;10.886;2022-11-04T00:42:15;3.80;;;2.93;;
49450;SDS011;35336;48.400;10.886;2022-11-04T00:42:31;3.83;;;3.00;;
49450;SDS011;35336;48.400;10.886;2022-11-04T00:42:46;3.22;;;2.85;;
49450;SDS011;35336;48.400;10.886;2022-11-04T00:43:01;4.77;;;3.00;;
49450;SDS011;35336;48.400;10.886;2022-11-04T00:43:17;4.87;;;2.87;;
49450;SDS011;35336;48.400;10.886;2022-11-04T00:43:32;3.40;;;2.75;;
49450;SDS011;35336;48.400;10.886;2022-11-04T00:43:47;3.10;;;2.80;;
49450;SDS011;35336;48.400;10.886;2022-11-04T00:44:03;3.60;;;2.73;;
49450;SDS011;35336;48.400;10.886;2022-11-04T00:44:19;6.97;;;3.47;;
49450;SDS011;35336;48.400;10.886;2022-11-04T00:44:34;6.25;;;3.38;;
49450;SDS011;35336;48.400;10.886;2022-11-04T00:44:49;3.30;;;2.60;;
49450;SDS011;35336;48.400;10.886;2022-11-04T00:45:05;4.40;;;2.50;;
49450;SDS011;35336;48.400;10.886;2022-11-04T00:45:20;4.43;;;2.60;;
49450;SDS011;35336;48.400;10.886;2022-11-04T00:45:36;5.07;;;3.00;;
49450;SDS011;35336;48.400;10.886;2022-11-04T00:45:51;5.15;;;3.03;;
49450;SDS011;35336;48.400;10.886;2022-11-04T00:46:06;3.87;;;2.97;;
49450;SDS011;35336;48.400;10.886;2022-11-04T00:46:22;3.30;;;2.83;;
49450;SDS011;35336;48.400;10.886;2022-11-04T00:46:37;3.13;;;2.70;;
49450;SDS011;35336;48.400;10.886;2022-11-04T00:46:52;3.17;;;2.80;;
49450;SDS011;35336;48.400;10.886;2022-11-04T00:47:08;3.27;;;2.97;;
49450;SDS011;35336;48.400;10.886;2022-11-04T00:47:23;3.10;;;2.78;;
49450;SDS011;35336;48.400;10.886;2022-11-04T00:47:39;2.57;;;2.37;;
49450;SDS011;35336;48.400;10.886;2022-11-04T00:47:54;2.92;;;2.60;;
49450;SDS011;35336;48.400;10.886;2022-11-04T00:48:09;3.00;;;2.70;;
49450;SDS011;35336;48.400;10.886;2022-11-04T00:48:25;2.70;;;2.40;;
49450;SDS011;35336;48.400;10.886;2022-11-04T00:48:40;4.60;;;2.53;;
49450;SDS011;35336;48.400;10.886;2022-11-04T00:48:55;4.50;;;2.67;;
49450;SDS011;35336;48.400;10.886;2022-11-04T00:49:11;3.10;;;2.80;;
49450;SDS011;35336;48.400;10.886;2022-11-04T00:49:27;5.50;;;3.00;;
49450;SDS011;35336;48.400;10.886;2022-11-04T00:49:43;5.53;;;2.72;;
49450;SDS011;35336;48.400;10.886;2022-11-04T00:49:58;3.40;;;2.38;;
49450;SDS011;35336;48.400;10.886;2022-11-04T00:50:13;3.57;;;2.40;;
49450;SDS011;35336;48.400;10.886;2022-11-04T00:50:29;2.90;;;2.33;;
49450;SDS011;35336;48.400;10.886;2022-11-04T00:50:44;2.65;;;2.40;;
49450;SDS011;35336;48.400;10.886;2022-11-04T00:50:59;3.43;;;2.63;;
49450;SDS011;35336;48.400;10.886;2022-11-04T00:51:14;3.53;;;2.50;;
49450;SDS011;35336;48.400;10.886;2022-11-04T00:51:30;3.30;;;2.47;;
49450;SDS011;35336;48.400;10.886;2022-11-04T00:51:45;2.95;;;2.40;;
49450;SDS011;35336;48.400;10.886;2022-11-04T00:52:00;3.30;;;2.20;;
49450;SDS011;35336;48.400;10.886;2022-11-04T00:52:15;3.73;;;2.30;;
49450;SDS011;35336;48.400;10.886;2022-11-04T00:52:31;4.43;;;2.42;;
49450;SDS011;35336;48.400;10.886;2022-11-04T00:52:46;6.60;;;2.67;;
49450;SDS011;35336;48.400;10.886;2022-11-04T00:53:02;6.60;;;2.70;;
49450;SDS011;35336;48.400;10.886;2022-11-04T00:53:18;4.07;;;2.43;;
49450;SDS011;35336;48.400;10.886;2022-11-04T00:53:33;3.20;;;2.10;;
49450;SDS011;35336;48.400;10.886;2022-11-04T00:53:48;3.87;;;2.17;;
49450;SDS011;35336;48.400;10.886;2022-11-04T00:54:04;4.18;;;2.38;;
49450;SDS011;35336;48.400;10.886;2022-11-04T00:54:19;4.10;;;2.30;;
49450;SDS011;35336;48.400;10.886;2022-11-04T00:54:35;3.80;;;2.30;;
49450;SDS011;35336;48.400;10.886;2022-11-04T00:54:50;2.95;;;2.30;;
49450;SDS011;35336;48.400;10.886;2022-11-04T00:55:05;3.10;;;2.50;;
49450;SDS011;35336;48.400;10.886;2022-11-04T00:55:21;2.88;;;2.40;;
49450;SDS011;35336;48.400;10.886;2022-11-04T00:55:36;2.90;;;2.33;;
49450;SDS011;35336;48.400;10.886;2022-11-04T00:55:51;3.20;;;2.33;;
49450;SDS011;35336;48.400;10.886;2022-11-04T00:56:07;3.25;;;2.22;;
49450;SDS011;35336;48.400;10.886;2022-11-04T00:56:22;3.83;;;2.27;;
49450;SDS011;35336;48.400;10.886;2022-11-04T00:56:38;3.90;;;2.40;;
49450;SDS011;35336;48.400;10.886;2022-11-04T00:56:53;3.83;;;2.45;;
49450;SDS011;35336;48.400;10.886;2022-11-04T00:57:09;4.07;;;2.60;;
49450;SDS011;35336;48.400;10.886;2022-11-04T00:57:25;4.15;;;2.63;;
49450;SDS011;35336;48.400;10.886;2022-11-04T00:57:40;3.93;;;2.60;;
49450;SDS011;35336;48.400;10.886;2022-11-04T00:57:56;3.88;;;2.50;;
49450;SDS011;35336;48.400;10.886;2022-11-04T00:58:12;4.38;;;2.55;;
49450;SDS011;35336;48.400;10.886;2022-11-04T00:58:28;3.13;;;2.40;;
49450;SDS011;35336;48.400;10.886;2022-11-04T00:58:43;3.35;;;2.13;;
49450;SDS011;35336;48.400;10.886;2022-11-04T00:58:58;4.43;;;2.17;;
49450;SDS011;35336;48.400;10.886;2022-11-04T00:59:14;2.75;;;2.08;;
49450;SDS011;35336;48.400;10.886;2022-11-04T00:59:29;3.50;;;2.27;;
49450;SDS011;35336;48.400;10.886;2022-11-04T00:59:44;4.17;;;2.30;;
49450;SDS011;35336;48.400;10.886;2022-11-04T01:00:00;2.72;;;2.17;;
49450;SDS011;35336;48.400;10.886;2022-11-04T01:00:15;3.33;;;2.20;;
49450;SDS011;35336;48.400;10.886;2022-11-04T01:00:30;3.43;;;2.20;;
49450;SDS011;35336;48.400;10.886;2022-11-04T01:00:46;2.60;;;2.40;;
49450;SDS011;35336;48.400;10.886;2022-11-04T01:01:06;2.70;;;2.50;;
49450;SDS011;35336;48.400;10.886;2022-11-04T01:01:22;2.78;;;2.42;;
49450;SDS011;35336;48.400;10.886;2022-11-04T01:01:37;3.77;;;2.63;;
49450;SDS011;35336;48.400;10.886;2022-11-04T01:01:52;3.30;;;2.40;;
49450;SDS011;35336;48.400;10.886;2022-11-04T01:02:08;3.33;;;2.30;;
49450;SDS011;35336;48.400;10.886;2022-11-04T01:02:24;4.00;;;2.55;;
49450;SDS011;35336;48.400;10.886;2022-11-04T01:02:39;4.10;;;2.43;;
49450;SDS011;35336;48.400;10.886;2022-11-04T01:02:54;3.53;;;2.20;;
49450;SDS011;35336;48.400;10.886;2022-11-04T01:03:10;3.27;;;2.40;;
49450;SDS011;35336;48.400;10.886;2022-11-04T01:03:25;4.73;;;2.60;;
49450;SDS011;35336;48.400;10.886;2022-11-04T01:03:40;3.33;;;2.30;;
49450;SDS011;35336;48.400;10.886;2022-11-04T01:03:56;2.20;;;2.03;;
49450;SDS011;35336;48.400;10.886;2022-11-04T01:04:11;2.77;;;2.40;;
49450;SDS011;35336;48.400;10.886;2022-11-04T01:04:26;2.77;;;2.47;;
49450;SDS011;35336;48.400;10.886;2022-11-04T01:04:42;3.05;;;2.35;;
49450;SDS011;35336;48.400;10.886;2022-11-04T01:04:57;3.40;;;2.47;;
49450;SDS011;35336;48.400;10.886;2022-11-04T01:05:13;2.95;;;2.45;;
49450;SDS011;35336;48.400;10.886;2022-11-04T01:05:28;3.13;;;2.20;;
49450;SDS011;35336;48.400;10.886;2022-11-04T01:05:43;3.77;;;2.30;;
49450;SDS011;35336;48.400;10.886;2022-11-04T01:05:59;3.60;;;2.30;;
49450;SDS011;35336;48.400;10.886;2022-11-04T01:06:14;2.73;;;2.17;;
49450;SDS011;35336;48.400;10.886;2022-11-04T01:06:30;2.72;;;2.50;;
49450;SDS011;35336;48.400;10.886;2022-11-04T01:06:45;3.97;;;2.47;;
49450;SDS011;35336;48.400;10.886;2022-11-04T01:07:00;5.23;;;2.47;;
49450;SDS011;35336;48.400;10.886;2022-11-04T01:07:16;4.10;;;2.42;;
49450;SDS011;35336;48.400;10.886;2022-11-04T01:07:31;2.78;;;2.05;;
49450;SDS011;35336;48.400;10.886;2022-11-04T01:07:47;2.50;;;2.00;;
49450;SDS011;35336;48.400;10.886;2022-11-04T01:08:02;3.23;;;2.00;;
49450;SDS011;35336;48.400;10.886;2022-11-04T01:08:17;4.07;;;2.07;;
49450;SDS011;35336;48.400;10.886;2022-11-04T01:08:32;3.63;;;2.05;;
49450;SDS011;35336;48.400;10.886;2022-11-04T01:08:48;3.63;;;2.17;;
49450;SDS011;35336;48.400;10.886;2022-11-04T01:09:09;4.03;;;2.20;;
49450;SDS011;35336;48.400;10.886;2022-11-04T01:09:26;4.18;;;2.20;;
49450;SDS011;35336;48.400;10.886;2022-11-04T01:09:41;3.70;;;2.38;;
49450;SDS011;35336;48.400;10.886;2022-11-04T01:09:57;2.70;;;2.27;;
49450;SDS011;35336;48.400;10.886;2022-11-04T01:10:12;5.27;;;2.20;;
49450;SDS011;35336;48.400;10.886;2022-11-04T01:10:27;5.47;;;2.30;;
49450;SDS011;35336;48.400;10.886;2022-11-04T01:10:42;5.20;;;2.50;;
49450;SDS011;35336;48.400;10.886;2022-11-04T01:11:04;4.67;;;2.23;;
49450;SDS011;35336;48.400;10.886;2022-11-04T01:11:21;3.90;;;2.10;;
49450;SDS011;35336;48.400;10.886;2022-11-04T01:11:37;4.77;;;2.20;;
49450;SDS011;35336;48.400;10.886;2022-11-04T01:11:52;3.30;;;2.00;;
49450;SDS011;35336;48.400;10.886;2022-11-04T01:12:07;2.13;;;1.80;;
49450;SDS011;35336;48.400;10.886;2022-11-04T01:12:23;2.73;;;1.80;;
49450;SDS011;35336;48.400;10.886;2022-11-04T01:12:38;2.87;;;1.80;;
49450;SDS011;35336;48.400;10.886;2022-11-04T01:12:53;2.47;;;2.00;;
49450;SDS011;35336;48.400;10.886;2022-11-04T01:13:09;3.47;;;1.87;;
49450;SDS011;35336;48.400;10.886;2022-11-04T01:13:25;3.75;;;1.88;;
49450;SDS011;35336;48.400;10.886;2022-11-04T01:13:40;2.70;;;2.13;;
49450;SDS011;35336;48.400;10.886;2022-11-04T01:13:56;2.88;;;2.15;;
49450;SDS011;35336;48.400;10.886;2022-11-04T01:14:12;2.92;;;2.10;;
49450;SDS011;35336;48.400;10.886;2022-11-04T01:14:27;3.20;;;2.00;;
49450;SDS011;35336;48.400;10.886;2022-11-04T01:14:42;3.38;;;2.00;;
49450;SDS011;35336;48.400;10.886;2022-11-04T01:14:58;3.80;;;1.90;;
49450;SDS011;35336;48.400;10.886;2022-11-04T01:15:13;3.10;;;1.90;;
49450;SDS011;35336;48.400;10.886;2022-11-04T01:15:28;4.10;;;2.20;;
49450;SDS011;35336;48.400;10.886;2022-11-04T01:15:43;4.17;;;2.13;;
49450;SDS011;35336;48.400;10.886;2022-11-04T01:15:59;2.47;;;1.90;;
49450;SDS011;35336;48.400;10.886;2022-11-04T01:16:15;2.28;;;1.83;;
49450;SDS011;35336;48.400;10.886;2022-11-04T01:16:31;3.50;;;1.80;;
49450;SDS011;35336;48.400;10.886;2022-11-04T01:16:48;3.80;;;2.00;;
49450;SDS011;35336;48.400;10.886;2022-11-04T01:17:04;3.47;;;1.90;;
49450;SDS011;35336;48.400;10.886;2022-11-04T01:17:19;4.07;;;2.05;;
49450;SDS011;35336;48.400;10.886;2022-11-04T01:17:34;2.43;;;1.97;;
49450;SDS011;35336;48.400;10.886;2022-11-04T01:17:49;2.10;;;1.67;;
49450;SDS011;35336;48.400;10.886;2022-11-04T01:18:05;2.40;;;1.77;;
49450;SDS011;35336;48.400;10.886;2022-11-04T01:18:21;2.10;;;1.90;;
49450;SDS011;35336;48.400;10.886;2022-11-04T01:18:36;2.40;;;1.80;;
49450;SDS011;35336;48.400;10.886;2022-11-04T01:18:52;4.28;;;1.70;;
49450;SDS011;35336;48.400;10.886;2022-11-04T01:19:09;3.63;;;1.70;;
49450;SDS011;35336;48.400;10.886;2022-11-04T01:19:24;2.65;;;1.70;;
49450;SDS011;35336;48.400;10.886;2022-11-04T01:19:39;2.07;;;1.80;;
49450;SDS011;35336;48.400;10.886;2022-11-04T01:19:55;1.90;;;1.60;;
49450;SDS011;35336;48.400;10.886;2022-11-04T01:20:10;1.77;;;1.50;;
49450;SDS011;35336;48.400;10.886;2022-11-04T01:20:26;2.50;;;1.67;;
49450;SDS011;35336;48.400;10.886;2022-11-04T01:20:41;3.13;;;1.77;;
49450;SDS011;35336;48.400;10.886;2022-11-04T01:21:00;3.20;;;1.70;;
49450;SDS011;35336;48.400;10.886;2022-11-04T01:21:16;2.15;;;1.48;;
49450;SDS011;35336;48.400;10.886;2022-11-04T01:21:31;2.75;;;1.50;;
49450;SDS011;35336;48.400;10.886;2022-11-04T01:21:50;3.55;;;1.55;;
49450;SDS011;35336;48.400;10.886;2022-11-04T01:22:06;2.95;;;1.70;;
49450;SDS011;35336;48.400;10.886;2022-11-04T01:22:21;1.83;;;1.50;;
49450;SDS011;35336;48.400;10.886;2022-11-04T01:22:37;2.03;;;1.50;;
49450;SDS011;35336;48.400;10.886;2022-11-04T01:22:52;2.50;;;1.50;;
49450;SDS011;35336;48.400;10.886;2022-11-04T01:23:07;2.10;;;1.40;;
49450;SDS011;35336;48.400;10.886;2022-11-04T01:23:22;2.30;;;1.50;;
49450;SDS011;35336;48.400;10.886;2022-11-04T01:23:38;2.87;;;1.50;;
49450;SDS011;35336;48.400;10.886;2022-11-04T01:23:55;2.85;;;1.40;;
49450;SDS011;35336;48.400;10.886;2022-11-04T01:24:10;2.03;;;1.40;;
49450;SDS011;35336;48.400;10.886;2022-11-04T01:24:25;2.00;;;1.40;;
49450;SDS011;35336;48.400;10.886;2022-11-04T01:24:41;2.17;;;1.50;;
49450;SDS011;35336;48.400;10.886;2022-11-04T01:24:56;2.03;;;1.45;;
49450;SDS011;35336;48.400;10.886;2022-11-04T01:25:11;3.30;;;1.53;;
49450;SDS011;35336;48.400;10.886;2022-11-04T01:25:26;3.13;;;1.60;;
49450;SDS011;35336;48.400;10.886;2022-11-04T01:25:42;1.60;;;1.50;;
49450;SDS011;35336;48.400;10.886;2022-11-04T01:25:57;1.98;;;1.70;;
49450;SDS011;35336;48.400;10.886;2022-11-04T01:26:14;3.20;;;1.83;;
49450;SDS011;35336;48.400;10.886;2022-11-04T01:26:30;2.17;;;1.50;;
49450;SDS011;35336;48.400;10.886;2022-11-04T01:26:46;1.58;;;1.30;;
49450;SDS011;35336;48.400;10.886;2022-11-04T01:27:01;1.70;;;1.40;;
49450;SDS011;35336;48.400;10.886;2022-11-04T01:27:16;2.30;;;1.40;;
49450;SDS011;35336;48.400;10.886;2022-11-04T01:27:31;3.20;;;1.50;;
49450;SDS011;35336;48.400;10.886;2022-11-04T01:27:47;2.55;;;1.60;;
49450;SDS011;35336;48.400;10.886;2022-11-04T01:28:02;2.10;;;1.40;;
49450;SDS011;35336;48.400;10.886;2022-11-04T01:28:17;4.27;;;1.40;;
49450;SDS011;35336;48.400;10.886;2022-11-04T01:28:32;4.50;;;1.50;;
49450;SDS011;35336;48.400;10.886;2022-11-04T01:28:48;3.13;;;1.50;;
49450;SDS011;35336;48.400;10.886;2022-11-04T01:29:04;2.70;;;1.30;;
49450;SDS011;35336;48.400;10.886;2022-11-04T01:29:20;2.80;;;1.50;;
49450;SDS011;35336;48.400;10.886;2022-11-04T01:29:35;3.13;;;1.50;;
49450;SDS011;35336;48.400;10.886;2022-11-04T01:29:50;2.77;;;1.37;;
49450;SDS011;35336;48.400;10.886;2022-11-04T01:30:06;3.03;;;1.50;;
49450;SDS011;35336;48.400;10.886;2022-11-04T01:30:22;2.55;;;1.40;;
49450;SDS011;35336;48.400;10.886;2022-11-04T01:30:37;2.13;;;1.20;;
49450;SDS011;35336;48.400;10.886;2022-11-04T01:30:53;1.98;;;1.30;;
49450;SDS011;35336;48.400;10.886;2022-11-04T01:31:09;1.73;;;1.43;;
49450;SDS011;35336;48.400;10.886;2022-11-04T01:31:27;1.63;;;1.20;;
49450;SDS011;35336;48.400;10.886;2022-11-04T01:31:44;2.13;;;1.30;;
49450;SDS011;35336;48.400;10.886;2022-11-04T01:31:59;2.53;;;1.40;;
49450;SDS011;35336;48.400;10.886;2022-11-04T01:32:14;1.40;;;1.10;;
49450;SDS011;35336;48.400;10.886;2022-11-04T01:32:29;1.40;;;1.27;;
49450;SDS011;35336;48.400;10.886;2022-11-04T01:32:45;1.63;;;1.35;;
49450;SDS011;35336;48.400;10.886;2022-11-04T01:33:00;1.90;;;1.20;;